Terminal Aerodrome Forecast
Issued by NWS

Home | Current Version | Previous Version | Text Only | Print | Product List | Glossary Off
Versions: 1 2 3 4 5 6 7 8 9 10 11 12 13 14 15 16 17 18 19 20 21 22 23 24 25 26 27 28 29

000
FTUS43 KICT 201600 AAD
TAFCNU
TAF AMD
KCNU 201601Z 2016/2112 21010KT 5SM BR OVC007
     FM201700 20008KT P6SM SCT025
     FM210000 21007KT P6SM VCTS SCT040CB BKN100
     FM210700 32007KT P6SM VCTS BKN070CB=

USA.gov is the U.S. government's official web portal to all federal, state and local government web resources and services.